createdAt,value
2018-05-17T00:00:55.784Z,20.83
2018-05-17T00:03:23.199Z,19.30
2018-05-17T00:05:51.385Z,12.77
2018-05-17T00:08:18.862Z,15.03
2018-05-17T00:10:46.283Z,20.07
2018-05-17T00:13:14.474Z,21.20
2018-05-17T00:15:47.789Z,17.90
2018-05-17T00:18:15.222Z,16.93
2018-05-17T00:20:42.655Z,19.57
2018-05-17T00:23:10.850Z,19.73
2018-05-17T00:25:38.370Z,20.33
2018-05-17T00:28:07.342Z,16.47
2018-05-17T00:30:34.770Z,16.53
2018-05-17T00:33:02.200Z,13.73
2018-05-17T00:35:30.390Z,19.57
2018-05-17T00:37:57.818Z,16.43
2018-05-17T00:40:25.243Z,19.67
2018-05-17T00:42:52.661Z,16.50
2018-05-17T00:45:20.140Z,14.93
2018-05-17T00:47:47.597Z,19.83
2018-05-17T00:50:15.022Z,19.20
2018-05-17T00:52:43.215Z,21.70
2018-05-17T00:55:10.798Z,19.67
2018-05-17T00:57:38.218Z,21.90
2018-05-17T01:00:06.405Z,17.20
2018-05-17T01:02:33.863Z,28.73
2018-05-17T01:05:01.646Z,16.73
2018-05-17T01:07:29.070Z,19.23
2018-05-17T01:09:57.257Z,30.63
2018-05-17T01:12:25.429Z,20.53
2018-05-17T01:14:52.866Z,24.33
2018-05-17T01:17:21.062Z,25.30
2018-05-17T01:19:48.550Z,20.00
2018-05-17T01:22:15.974Z,25.97
2018-05-17T01:24:43.773Z,20.57
2018-05-17T01:27:11.222Z,25.83
2018-05-17T01:29:38.729Z,20.00
2018-05-17T01:32:06.150Z,25.20
2018-05-17T01:34:33.575Z,20.60
2018-05-17T01:37:12.951Z,25.53
2018-05-17T01:39:40.619Z,26.00
2018-05-17T01:42:08.335Z,19.03
2018-05-17T01:44:35.713Z,27.87
2018-05-17T01:47:03.147Z,19.77
2018-05-17T01:49:30.570Z,20.77
2018-05-17T01:51:57.989Z,29.80
2018-05-17T01:54:25.410Z,27.67
2018-05-17T01:56:52.869Z,24.87
2018-05-17T01:59:20.298Z,28.53
2018-05-17T02:01:47.754Z,22.80
2018-05-17T02:04:15.198Z,23.17
2018-05-17T02:06:42.635Z,27.90
2018-05-17T02:09:10.064Z,20.43
2018-05-17T02:11:37.569Z,29.03
2018-05-17T02:14:04.998Z,26.37
2018-05-17T02:16:32.439Z,23.10
2018-05-17T02:18:59.866Z,23.67
2018-05-17T02:21:28.319Z,25.20
2018-05-17T02:23:55.954Z,22.17
2018-05-17T02:26:23.390Z,21.00
2018-05-17T02:28:50.814Z,20.63
2018-05-17T02:31:19.765Z,33.00
2018-05-17T02:33:48.178Z,23.90
2018-05-17T02:36:18.261Z,24.40
2018-05-17T02:38:45.732Z,24.77
2018-05-17T02:41:13.172Z,30.20
2018-05-17T02:43:40.595Z,27.97
2018-05-17T02:46:08.822Z,28.07
2018-05-17T02:48:36.246Z,22.73
2018-05-17T02:51:03.682Z,24.10
2018-05-17T02:53:32.005Z,31.63
2018-05-17T02:55:59.422Z,22.27
2018-05-17T02:58:27.618Z,27.50
2018-05-17T03:00:55.127Z,28.70
2018-05-17T03:03:24.085Z,24.53
2018-05-17T03:05:51.875Z,30.30
2018-05-17T03:08:19.410Z,22.73
2018-05-17T03:10:46.843Z,26.53
2018-05-17T03:13:14.290Z,19.57
2018-05-17T03:15:41.783Z,30.87
2018-05-17T03:18:09.201Z,29.90
2018-05-17T03:20:37.614Z,30.17
2018-05-17T03:23:05.110Z,30.13
2018-05-17T03:25:32.557Z,26.67
2018-05-17T03:28:00.094Z,28.67
2018-05-17T03:30:27.995Z,24.30
2018-05-17T03:32:55.446Z,25.40
2018-05-17T03:35:22.873Z,30.33
2018-05-17T03:37:50.436Z,28.70
2018-05-17T03:40:17.854Z,25.63
2018-05-17T03:42:46.038Z,27.77
2018-05-17T03:45:13.524Z,24.77
2018-05-17T03:47:40.942Z,28.70
2018-05-17T03:50:09.134Z,27.03
2018-05-17T03:52:36.606Z,27.63
2018-05-17T03:55:04.031Z,24.77
2018-05-17T03:57:33.118Z,40.13
2018-05-17T04:00:01.338Z,28.73
2018-05-17T04:02:40.694Z,20.27
2018-05-17T04:05:20.111Z,24.10
2018-05-17T04:07:47.590Z,27.03
2018-05-17T04:10:15.761Z,21.97
2018-05-17T04:12:43.197Z,27.40
2018-05-17T04:15:10.743Z,22.20
2018-05-17T04:17:38.188Z,32.87
2018-05-17T04:20:06.385Z,21.77
2018-05-17T04:22:33.823Z,24.00
2018-05-17T04:25:01.294Z,24.73
2018-05-17T04:27:28.725Z,26.00
2018-05-17T04:29:56.925Z,25.33
2018-05-17T04:32:24.369Z,23.67
2018-05-17T04:34:51.856Z,26.03
2018-05-17T04:37:19.266Z,26.17
2018-05-17T04:39:47.754Z,20.60
2018-05-17T04:42:16.019Z,25.70
2018-05-17T04:44:43.447Z,20.23
2018-05-17T04:47:10.969Z,27.10
2018-05-17T04:49:38.299Z,30.67
2018-05-17T04:52:07.666Z,30.30
2018-05-17T04:54:35.198Z,32.77
2018-05-17T04:57:02.650Z,24.33
2018-05-17T04:59:30.091Z,24.27
2018-05-17T05:01:57.575Z,24.70
2018-05-17T05:04:24.994Z,24.07
2018-05-17T05:06:53.186Z,27.77
2018-05-17T05:09:20.896Z,28.40
2018-05-17T05:11:49.149Z,24.37
2018-05-17T05:14:16.654Z,30.27
2018-05-17T05:16:44.894Z,28.90
2018-05-17T05:19:13.397Z,33.60
2018-05-17T05:21:40.799Z,27.97
2018-05-17T05:24:08.299Z,20.90
2018-05-17T05:26:36.040Z,25.20
2018-05-17T05:29:03.458Z,33.73
2018-05-17T05:31:31.713Z,23.90
2018-05-17T05:33:59.075Z,28.07
2018-05-17T05:36:26.546Z,24.43
2018-05-17T05:38:54.734Z,24.00
2018-05-17T05:41:22.174Z,22.33
2018-05-17T05:43:50.366Z,25.40
2018-05-17T05:46:19.634Z,23.33
2018-05-17T05:48:47.058Z,27.03
2018-05-17T05:51:14.483Z,26.27
2018-05-17T05:53:41.939Z,29.40
2018-05-17T05:56:09.629Z,27.50
2018-05-17T05:58:37.111Z,23.20
2018-05-17T06:01:04.561Z,21.00
2018-05-17T06:03:31.993Z,27.40
2018-05-17T06:05:59.660Z,30.20
2018-05-17T06:08:28.288Z,23.23
2018-05-17T06:10:55.679Z,30.27
2018-05-17T06:13:23.101Z,19.57
2018-05-17T06:15:50.525Z,27.23
2018-05-17T06:18:17.951Z,20.57
2018-05-17T06:20:45.447Z,26.30
2018-05-17T06:23:12.875Z,33.47
2018-05-17T06:25:40.301Z,25.20
2018-05-17T06:28:08.656Z,26.13
2018-05-17T06:30:36.078Z,27.10
2018-05-17T06:33:03.871Z,23.77
2018-05-17T06:35:31.341Z,26.63
2018-05-17T06:37:58.766Z,21.53
2018-05-17T06:40:26.194Z,24.03
2018-05-17T06:42:53.678Z,26.97
2018-05-17T06:45:21.146Z,28.53
2018-05-17T06:47:48.562Z,23.07
2018-05-17T06:50:16.764Z,23.53
2018-05-17T06:52:44.198Z,24.63
2018-05-17T06:55:11.627Z,19.90
2018-05-17T06:57:39.053Z,24.63
2018-05-17T07:00:06.727Z,21.40
2018-05-17T07:02:34.155Z,27.30
2018-05-17T07:05:01.636Z,19.80
2018-05-17T07:07:29.073Z,24.53
2018-05-17T07:09:56.553Z,22.90
2018-05-17T07:12:23.976Z,18.27
2018-05-17T07:14:51.398Z,18.30
2018-05-17T07:17:19.131Z,25.93
2018-05-17T07:19:46.550Z,24.80
2018-05-17T07:22:14.038Z,21.13
2018-05-17T07:24:41.494Z,19.67
2018-05-17T07:27:08.918Z,22.07
2018-05-17T07:29:36.339Z,21.03
2018-05-17T07:32:03.830Z,21.53
2018-05-17T07:34:31.254Z,26.67
2018-05-17T07:36:58.673Z,21.80
2018-05-17T07:39:26.129Z,15.03
2018-05-17T07:41:53.629Z,20.27
2018-05-17T07:44:21.782Z,20.75
2018-05-17T07:46:49.221Z,21.13
2018-05-17T07:49:16.639Z,20.77
2018-05-17T07:51:45.055Z,19.37
2018-05-17T07:54:12.538Z,19.48
2018-05-17T07:56:39.995Z,20.80
2018-05-17T07:59:07.489Z,21.33
2018-05-17T08:01:35.678Z,17.10
2018-05-17T08:04:03.345Z,17.12
2018-05-17T08:06:31.518Z,21.50
2018-05-17T08:08:58.954Z,18.10
2018-05-17T08:11:27.172Z,20.27
2018-05-17T08:13:54.638Z,17.40
2018-05-17T08:16:22.314Z,20.17
2018-05-17T08:18:50.784Z,17.90
2018-05-17T08:21:18.194Z,22.83
2018-05-17T08:23:46.408Z,19.55
2018-05-17T08:26:13.838Z,17.62
2018-05-17T08:28:41.288Z,17.73
2018-05-17T08:31:09.469Z,17.75
2018-05-17T08:33:37.010Z,23.55
2018-05-17T08:36:04.540Z,25.15
2018-05-17T08:38:31.950Z,19.70
2018-05-17T08:40:59.402Z,26.87
2018-05-17T08:43:26.870Z,18.92
2018-05-17T08:45:54.376Z,21.42
2018-05-17T08:48:21.800Z,20.00
2018-05-17T08:50:49.494Z,23.80
2018-05-17T08:53:16.909Z,18.30
2018-05-17T08:55:44.334Z,15.85
2018-05-17T08:58:12.530Z,17.95
2018-05-17T09:00:40.041Z,19.58
2018-05-17T09:03:08.249Z,16.65
2018-05-17T09:05:36.717Z,14.52
2018-05-17T09:08:04.138Z,16.25
2018-05-17T09:10:31.590Z,19.45
2018-05-17T09:12:59.029Z,17.87
2018-05-17T09:15:26.489Z,18.75
2018-05-17T09:18:01.566Z,23.00
2018-05-17T09:20:30.050Z,19.33
2018-05-17T09:22:57.398Z,24.08
2018-05-17T09:25:25.014Z,14.45
2018-05-17T09:27:52.409Z,17.23
2018-05-17T09:30:19.835Z,19.27
2018-05-17T09:32:47.386Z,19.05
2018-05-17T09:35:14.874Z,20.17
2018-05-17T09:37:42.432Z,21.62
2018-05-17T09:40:10.611Z,17.95
2018-05-17T09:42:38.073Z,18.17
2018-05-17T09:45:05.490Z,22.23
2018-05-17T09:47:33.716Z,19.98
2018-05-17T09:50:01.132Z,15.77
2018-05-17T09:52:28.566Z,16.50
2018-05-17T09:54:57.005Z,13.13
2018-05-17T09:57:24.422Z,14.60
2018-05-17T09:59:52.186Z,12.50
2018-05-17T10:02:19.622Z,15.07
2018-05-17T10:04:47.067Z,16.45
2018-05-17T10:07:14.588Z,21.20
2018-05-17T10:09:42.013Z,21.08
2018-05-17T10:12:10.224Z,29.33
2018-05-17T10:14:38.723Z,14.45
2018-05-17T10:17:06.143Z,15.80
2018-05-17T10:19:34.446Z,15.60
2018-05-17T10:22:02.661Z,16.08
2018-05-17T10:24:30.857Z,19.80
2018-05-17T10:26:59.099Z,18.62
2018-05-17T10:29:27.306Z,17.62
2018-05-17T10:31:55.485Z,18.62
2018-05-17T10:34:22.986Z,24.08
2018-05-17T10:36:50.530Z,17.20
2018-05-17T10:39:18.021Z,24.20
2018-05-17T10:41:46.277Z,12.63
2018-05-17T10:44:13.706Z,18.30
2018-05-17T10:46:41.147Z,21.37
2018-05-17T10:49:09.337Z,16.85
2018-05-17T10:51:36.813Z,18.50
2018-05-17T10:54:04.264Z,17.62
2018-05-17T10:56:31.962Z,17.33
2018-05-17T10:58:59.424Z,16.12
2018-05-17T11:01:26.866Z,16.80
2018-05-17T11:03:54.308Z,13.13
2018-05-17T11:06:21.786Z,20.10
2018-05-17T11:08:49.227Z,20.62
2018-05-17T11:11:16.634Z,21.48
2018-05-17T11:13:44.870Z,17.15
2018-05-17T11:16:12.632Z,16.85
2018-05-17T11:18:40.054Z,18.05
2018-05-17T11:21:08.533Z,19.90
2018-05-17T11:23:36.758Z,27.40
2018-05-17T11:26:04.183Z,19.48
2018-05-17T11:28:31.678Z,26.02
2018-05-17T11:30:59.181Z,19.17
2018-05-17T11:33:27.365Z,16.67
2018-05-17T11:35:54.954Z,22.00
2018-05-17T11:38:22.387Z,21.48
2018-05-17T11:40:49.852Z,20.08
2018-05-17T11:43:17.282Z,20.37
2018-05-17T11:45:45.487Z,23.20
2018-05-17T11:48:12.915Z,23.73
2018-05-17T11:50:41.232Z,19.20
2018-05-17T11:53:08.716Z,17.73
2018-05-17T11:55:36.182Z,24.40
2018-05-17T11:58:03.615Z,22.48
2018-05-17T12:00:31.118Z,21.00
2018-05-17T12:02:58.539Z,23.17
2018-05-17T12:05:25.957Z,21.63
2018-05-17T12:07:53.390Z,16.97
2018-05-17T12:10:21.606Z,25.67
2018-05-17T12:12:49.059Z,21.33
2018-05-17T12:15:16.623Z,18.83
2018-05-17T12:17:44.098Z,18.17
2018-05-17T12:20:11.526Z,20.10
2018-05-17T12:22:39.058Z,23.10
2018-05-17T12:25:06.570Z,23.23
2018-05-17T12:27:33.999Z,22.57
2018-05-17T12:30:01.590Z,19.50
2018-05-17T12:32:29.058Z,26.57
2018-05-17T12:34:56.485Z,23.40
2018-05-17T12:37:24.092Z,21.63
2018-05-17T12:39:51.513Z,27.27
2018-05-17T12:42:18.981Z,20.80
2018-05-17T12:44:46.390Z,21.60
2018-05-17T12:47:14.586Z,23.43
2018-05-17T12:49:42.950Z,24.13
2018-05-17T12:52:11.359Z,21.73
2018-05-17T12:54:40.358Z,21.57
2018-05-17T12:57:07.874Z,22.17
2018-05-17T12:59:36.879Z,23.77
2018-05-17T13:02:04.784Z,28.37
2018-05-17T13:04:33.209Z,22.13
2018-05-17T13:07:00.710Z,25.23
2018-05-17T13:09:28.178Z,29.37
2018-05-17T13:11:56.295Z,22.23
2018-05-17T13:14:23.714Z,27.67
2018-05-17T13:16:51.663Z,31.07
2018-05-17T13:19:19.091Z,23.63
2018-05-17T13:21:46.554Z,28.60
2018-05-17T13:24:14.359Z,32.63
2018-05-17T13:26:41.786Z,27.10
2018-05-17T13:29:10.054Z,21.67
2018-05-17T13:31:38.270Z,23.00
2018-05-17T13:34:06.563Z,19.00
2018-05-17T13:36:34.034Z,24.80
2018-05-17T13:39:01.463Z,27.23
2018-05-17T13:41:28.881Z,22.77
2018-05-17T13:43:57.109Z,24.20
2018-05-17T13:46:24.553Z,26.03
2018-05-17T13:48:52.003Z,30.07
2018-05-17T13:51:19.485Z,31.27
2018-05-17T13:53:48.010Z,22.47
2018-05-17T13:56:16.203Z,22.70
2018-05-17T13:58:43.681Z,26.67
2018-05-17T14:01:11.187Z,26.67
2018-05-17T14:03:38.633Z,27.73
2018-05-17T14:06:06.062Z,30.93
2018-05-17T14:08:33.492Z,29.50
2018-05-17T14:11:01.677Z,25.60
2018-05-17T14:13:29.255Z,17.47
2018-05-17T14:15:56.701Z,26.00
2018-05-17T14:18:24.159Z,31.17
2018-05-17T14:20:51.631Z,28.47
2018-05-17T14:23:19.357Z,24.50
2018-05-17T14:25:47.618Z,19.73
2018-05-17T14:28:16.117Z,28.73
2018-05-17T14:30:44.309Z,24.60
2018-05-17T14:33:11.758Z,24.03
2018-05-17T14:35:39.183Z,21.17
2018-05-17T14:38:06.699Z,18.93
2018-05-17T14:40:34.130Z,24.30
2018-05-17T14:43:01.623Z,20.20
2018-05-17T14:45:29.386Z,20.53
2018-05-17T14:47:56.805Z,21.20
2018-05-17T14:50:27.212Z,23.53
2018-05-17T14:52:54.638Z,23.43
2018-05-17T14:55:22.065Z,18.30
2018-05-17T14:57:49.646Z,22.00
2018-05-17T15:00:17.147Z,26.20
2018-05-17T15:02:45.067Z,22.07
2018-05-17T15:05:13.154Z,21.43
2018-05-17T15:07:40.584Z,26.43
2018-05-17T15:10:08.182Z,28.00
2018-05-17T15:12:35.621Z,19.90
2018-05-17T15:15:03.046Z,26.73
2018-05-17T15:17:30.530Z,31.10
2018-05-17T15:19:57.962Z,19.57
2018-05-17T15:22:25.554Z,22.57
2018-05-17T15:24:52.995Z,21.60
2018-05-17T15:27:20.563Z,20.97
2018-05-17T15:29:48.260Z,27.00
2018-05-17T15:32:15.725Z,26.53
2018-05-17T15:34:43.154Z,28.13
2018-05-17T15:37:10.592Z,24.47
2018-05-17T15:39:38.014Z,19.17
2018-05-17T15:42:06.210Z,27.53
2018-05-17T15:44:33.716Z,23.37
2018-05-17T15:47:02.120Z,22.87
2018-05-17T15:49:30.311Z,22.83
2018-05-17T15:51:59.497Z,27.87
2018-05-17T15:54:28.221Z,26.03
2018-05-17T15:56:55.690Z,27.67
2018-05-17T15:59:23.142Z,32.70
2018-05-17T16:01:50.622Z,37.70
2018-05-17T16:04:18.048Z,34.10
2018-05-17T16:06:45.501Z,35.87
2018-05-17T16:09:13.106Z,33.53
2018-05-17T16:11:40.546Z,36.13
2018-05-17T16:14:07.974Z,33.67
2018-05-17T16:16:35.446Z,32.37
2018-05-17T16:19:03.011Z,30.93
2018-05-17T16:21:30.433Z,25.67
2018-05-17T16:23:58.647Z,25.13
2018-05-17T16:26:26.076Z,29.73
2018-05-17T16:28:53.532Z,27.13
2018-05-17T16:31:21.737Z,25.63
2018-05-17T16:33:49.169Z,31.27
2018-05-17T16:36:16.599Z,23.43
2018-05-17T16:38:45.051Z,24.63
2018-05-17T16:41:14.495Z,29.10
2018-05-17T16:43:42.763Z,25.00
2018-05-17T16:46:10.959Z,25.67
2018-05-17T16:48:38.404Z,28.03
2018-05-17T16:51:06.719Z,25.47
2018-05-17T16:53:34.175Z,31.10
2018-05-17T16:56:01.648Z,23.37
2018-05-17T16:58:29.094Z,23.00
2018-05-17T17:00:56.527Z,26.53
2018-05-17T17:03:23.958Z,26.63
2018-05-17T17:05:52.161Z,31.03
2018-05-17T17:08:19.595Z,26.37
2018-05-17T17:10:47.851Z,27.87
2018-05-17T17:13:15.319Z,27.23
2018-05-17T17:15:43.609Z,21.43
2018-05-17T17:18:10.984Z,30.70
2018-05-17T17:20:38.470Z,30.97
2018-05-17T17:23:05.915Z,34.10
2018-05-17T17:25:33.340Z,21.73
2018-05-17T17:28:01.772Z,28.87
2018-05-17T17:30:32.127Z,25.17
2018-05-17T17:32:59.788Z,31.10
2018-05-17T17:35:27.550Z,31.80
2018-05-17T17:37:54.983Z,34.20
2018-05-17T17:40:22.413Z,34.60
2018-05-17T17:42:50.702Z,31.77
2018-05-17T17:45:23.212Z,34.63
2018-05-17T17:47:50.946Z,33.30
2018-05-17T17:50:18.382Z,32.43
2018-05-17T17:52:45.894Z,34.60
2018-05-17T17:55:13.671Z,37.77
2018-05-17T17:57:41.823Z,30.97
2018-05-17T18:00:09.416Z,34.13
2018-05-17T18:02:36.827Z,40.90
2018-05-17T18:05:04.371Z,47.27
2018-05-17T18:07:32.249Z,35.90
2018-05-17T18:09:59.866Z,37.57
2018-05-17T18:12:28.074Z,49.50
2018-05-17T18:14:56.310Z,38.40
2018-05-17T18:17:25.042Z,37.97
2018-05-17T18:19:52.482Z,45.00
2018-05-17T18:22:20.425Z,39.23
2018-05-17T18:24:48.990Z,36.07
2018-05-17T18:27:16.574Z,35.10
2018-05-17T18:29:44.842Z,40.40
2018-05-17T18:32:13.291Z,39.07
2018-05-17T18:34:40.768Z,47.57
2018-05-17T18:37:08.469Z,38.72
2018-05-17T18:39:36.178Z,42.30
2018-05-17T18:42:03.614Z,41.40
2018-05-17T18:44:31.637Z,35.50
2018-05-17T18:47:00.291Z,31.67
2018-05-17T18:49:27.761Z,34.73
2018-05-17T18:51:55.187Z,30.23
2018-05-17T18:54:22.622Z,33.80
2018-05-17T18:56:50.518Z,40.40
2018-05-17T18:59:18.399Z,33.03
2018-05-17T19:01:45.846Z,33.63
2018-05-17T19:04:13.266Z,34.47
2018-05-17T19:06:40.727Z,32.63
2018-05-17T19:09:08.155Z,31.63
2018-05-17T19:11:36.615Z,40.23
2018-05-17T19:14:04.202Z,34.23
2018-05-17T19:16:31.546Z,37.53
2018-05-17T19:18:58.999Z,35.17
2018-05-17T19:21:26.442Z,28.93
2018-05-17T19:23:55.398Z,40.37
2018-05-17T19:26:22.838Z,32.23
2018-05-17T19:28:50.635Z,22.23
2018-05-17T19:31:18.065Z,39.00
2018-05-17T19:33:45.548Z,31.00
2018-05-17T19:36:12.916Z,32.13
2018-05-17T19:38:41.108Z,30.60
2018-05-17T19:41:09.344Z,28.67
2018-05-17T19:43:36.787Z,33.97
2018-05-17T19:46:04.215Z,33.40
2018-05-17T19:48:32.409Z,36.13
2018-05-17T19:51:01.356Z,29.10
2018-05-17T19:53:29.414Z,30.60
2018-05-17T19:55:57.066Z,31.17
2018-05-17T19:58:24.777Z,33.03
2018-05-17T20:00:53.006Z,23.40
2018-05-17T20:03:20.698Z,30.17
2018-05-17T20:05:48.134Z,23.37
2018-05-17T20:08:15.575Z,30.17
2018-05-17T20:10:43.002Z,23.23
2018-05-17T20:13:11.245Z,27.10
2018-05-17T20:15:38.774Z,27.63
2018-05-17T20:18:06.662Z,37.43
2018-05-17T20:20:34.300Z,28.33
2018-05-17T20:23:01.726Z,28.90
2018-05-17T20:25:30.039Z,32.07
2018-05-17T20:27:57.517Z,22.57
2018-05-17T20:30:24.986Z,28.57
2018-05-17T20:32:52.385Z,30.63
2018-05-17T20:35:19.869Z,28.57
2018-05-17T20:37:47.307Z,22.53
2018-05-17T20:40:14.730Z,22.17
2018-05-17T20:42:43.010Z,28.90
2018-05-17T20:45:11.259Z,24.90
2018-05-17T20:47:38.694Z,24.17
2018-05-17T20:50:06.170Z,28.53
2018-05-17T20:52:33.821Z,21.53
2018-05-17T20:55:01.242Z,27.03
2018-05-17T20:57:28.726Z,21.00
2018-05-17T20:59:56.174Z,26.73
2018-05-17T21:02:23.738Z,24.40
2018-05-17T21:04:51.170Z,21.17
2018-05-17T21:07:19.376Z,24.87
2018-05-17T21:09:46.807Z,30.77
2018-05-17T21:12:14.395Z,24.60
2018-05-17T21:14:41.839Z,24.07
2018-05-17T21:17:09.278Z,25.47
2018-05-17T21:19:36.705Z,26.10
2018-05-17T21:22:04.162Z,25.10
2018-05-17T21:24:32.361Z,27.97
2018-05-17T21:27:00.545Z,25.37
2018-05-17T21:29:27.974Z,30.63
2018-05-17T21:31:55.481Z,24.07
2018-05-17T21:34:23.023Z,39.13
2018-05-17T21:36:50.541Z,24.67
2018-05-17T21:39:18.758Z,28.40
2018-05-17T21:41:46.194Z,28.83
2018-05-17T21:44:14.383Z,21.27
2018-05-17T21:46:41.905Z,25.47
2018-05-17T21:49:11.095Z,22.87
2018-05-17T21:51:38.521Z,22.70
2018-05-17T21:54:05.953Z,22.07
2018-05-17T21:56:34.175Z,23.67
2018-05-17T21:59:02.415Z,29.83
2018-05-17T22:01:30.819Z,22.07
2018-05-17T22:03:58.269Z,21.70
2018-05-17T22:06:25.729Z,23.23
2018-05-17T22:08:53.890Z,26.53
2018-05-17T22:11:21.591Z,25.27
2018-05-17T22:13:49.026Z,21.03
2018-05-17T22:16:18.783Z,22.90
2018-05-17T22:18:47.005Z,24.37
2018-05-17T22:21:14.446Z,27.07
2018-05-17T22:23:42.039Z,22.60
2018-05-17T22:26:09.584Z,25.62
2018-05-17T22:28:37.111Z,21.43
2018-05-17T22:31:05.312Z,24.57
2018-05-17T22:33:32.802Z,24.30
2018-05-17T22:36:00.409Z,20.93
2018-05-17T22:38:28.622Z,22.70
2018-05-17T22:40:56.480Z,28.57
2018-05-17T22:43:23.937Z,22.47
2018-05-17T22:45:51.353Z,31.43
2018-05-17T22:48:19.671Z,26.43
2018-05-17T22:50:47.161Z,24.43
2018-05-17T22:53:14.637Z,27.63
2018-05-17T22:55:42.053Z,29.93
2018-05-17T22:58:21.584Z,20.87
2018-05-17T23:03:28.400Z,22.80
2018-05-17T23:05:55.828Z,24.47
2018-05-17T23:08:24.242Z,25.10
2018-05-17T23:10:51.778Z,24.67
2018-05-17T23:13:19.211Z,25.30
2018-05-17T23:15:46.718Z,21.47
2018-05-17T23:18:14.272Z,23.83
